createdAt,value
2022-11-10T00:00:53.983Z,87.80
2022-11-10T00:03:40.089Z,87.67
2022-11-10T00:06:24.966Z,87.55
2022-11-10T00:09:10.305Z,88.16
2022-11-10T00:11:55.399Z,88.01
2022-11-10T00:14:59.066Z,87.87
2022-11-10T00:17:44.946Z,87.68
2022-11-10T00:20:30.288Z,87.14
2022-11-10T00:23:15.661Z,86.05
2022-11-10T00:26:00.586Z,85.93
2022-11-10T00:28:45.566Z,85.84
2022-11-10T00:31:30.405Z,85.41
2022-11-10T00:34:16.949Z,85.51
2022-11-10T00:37:02.978Z,85.01
2022-11-10T00:39:48.242Z,85.11
2022-11-10T00:42:33.429Z,84.69
2022-11-10T00:45:18.221Z,84.37
2022-11-10T00:48:03.123Z,84.23
2022-11-10T00:50:48.153Z,84.47
2022-11-10T00:53:33.414Z,84.33
2022-11-10T00:56:18.659Z,83.71
2022-11-10T00:59:03.632Z,83.94
2022-11-10T01:01:48.528Z,83.95
2022-11-10T01:04:33.578Z,83.90
2022-11-10T01:07:18.493Z,84.28
2022-11-10T01:10:04.151Z,84.10
2022-11-10T01:12:49.308Z,83.94
2022-11-10T01:15:34.360Z,84.21
2022-11-10T01:18:19.231Z,84.02
2022-11-10T01:21:05.114Z,83.77
2022-11-10T01:23:49.983Z,83.62
2022-11-10T01:26:34.925Z,83.72
2022-11-10T01:29:19.974Z,84.03
2022-11-10T01:32:05.400Z,84.63
2022-11-10T01:34:50.432Z,84.71
2022-11-10T01:37:35.586Z,84.38
2022-11-10T01:40:21.268Z,84.08
2022-11-10T01:43:06.113Z,84.86
2022-11-10T01:45:50.833Z,84.94
2022-11-10T01:48:51.051Z,84.38
2022-11-10T01:51:59.584Z,84.91
2022-11-10T01:54:48.695Z,84.86
2022-11-10T01:57:34.354Z,84.43
2022-11-10T02:00:20.218Z,85.26
2022-11-10T02:03:16.376Z,84.52
2022-11-10T02:06:01.650Z,84.51
2022-11-10T02:08:47.388Z,84.83
2022-11-10T02:11:33.996Z,84.29
2022-11-10T02:14:18.816Z,84.50
2022-11-10T02:17:04.032Z,84.59
2022-11-10T02:19:51.374Z,84.25
2022-11-10T02:22:37.259Z,84.42
2022-11-10T02:25:25.265Z,84.40
2022-11-10T02:28:10.502Z,84.12
2022-11-10T02:30:55.342Z,84.39
2022-11-10T02:33:40.557Z,84.19
2022-11-10T02:36:25.599Z,84.38
2022-11-10T02:39:10.590Z,84.33
2022-11-10T02:41:55.619Z,83.89
2022-11-10T02:44:41.425Z,84.15
2022-11-10T02:47:26.669Z,83.94
2022-11-10T02:50:11.556Z,83.84
2022-11-10T02:52:56.583Z,83.87
2022-11-10T02:55:42.155Z,83.77
2022-11-10T02:58:27.345Z,83.93
2022-11-10T03:01:12.261Z,83.53
2022-11-10T03:03:57.516Z,83.56
2022-11-10T03:06:42.469Z,83.67
2022-11-10T03:09:27.263Z,83.88
2022-11-10T03:12:12.251Z,83.86
2022-11-10T03:14:57.126Z,83.69
2022-11-10T03:17:43.060Z,83.76
2022-11-10T03:20:27.823Z,83.76
2022-11-10T03:23:12.731Z,83.47
2022-11-10T03:25:57.556Z,83.90
2022-11-10T03:28:42.346Z,83.88
2022-11-10T03:31:27.300Z,84.40
2022-11-10T03:34:12.187Z,84.49
2022-11-10T03:36:57.143Z,84.59
2022-11-10T03:39:42.185Z,84.38
2022-11-10T03:42:27.130Z,84.95
2022-11-10T03:45:14.258Z,85.50
2022-11-10T03:47:59.661Z,85.32
2022-11-10T03:50:44.914Z,85.29
2022-11-10T03:53:29.690Z,85.70
2022-11-10T03:56:14.546Z,85.35
2022-11-10T03:58:59.425Z,85.80
2022-11-10T04:01:44.412Z,85.80
2022-11-10T04:04:48.202Z,86.56
2022-11-10T04:07:52.042Z,86.24
2022-11-10T04:10:37.281Z,86.42
2022-11-10T04:13:40.866Z,87.27
2022-11-10T04:16:26.011Z,86.93
2022-11-10T04:19:11.049Z,86.85
2022-11-10T04:21:56.658Z,87.58
2022-11-10T04:24:41.658Z,87.74
2022-11-10T04:27:26.790Z,88.21
2022-11-10T04:30:11.945Z,88.57
2022-11-10T04:32:56.978Z,87.56
2022-11-10T04:35:42.614Z,89.04
2022-11-10T04:38:27.574Z,88.66
2022-11-10T04:41:12.908Z,88.49
2022-11-10T04:43:58.654Z,89.25
2022-11-10T04:46:45.454Z,89.07
2022-11-10T04:49:30.100Z,89.81
2022-11-10T04:52:15.098Z,88.83
2022-11-10T04:54:59.940Z,89.62
2022-11-10T04:57:45.022Z,90.00
2022-11-10T05:00:30.411Z,90.20
2022-11-10T05:03:15.710Z,90.09
2022-11-10T05:06:00.565Z,90.70
2022-11-10T05:08:47.313Z,89.76
2022-11-10T05:11:32.393Z,89.93
2022-11-10T05:14:17.265Z,90.59
2022-11-10T05:17:02.125Z,91.14
2022-11-10T05:19:47.419Z,90.75
2022-11-10T05:22:32.730Z,90.94
2022-11-10T05:25:17.957Z,91.62
2022-11-10T05:28:03.591Z,92.46
2022-11-10T05:30:48.443Z,91.84
2022-11-10T05:33:34.726Z,91.82
2022-11-10T05:36:19.499Z,92.53
2022-11-10T05:39:04.542Z,92.31
2022-11-10T05:41:49.432Z,91.81
2022-11-10T05:44:34.467Z,91.89
2022-11-10T05:47:19.265Z,93.20
2022-11-10T05:50:04.947Z,93.75
2022-11-10T05:52:53.173Z,92.45
2022-11-10T05:55:38.240Z,93.81
2022-11-10T05:58:23.175Z,93.10
2022-11-10T06:01:08.121Z,93.28
2022-11-10T06:03:53.441Z,94.12
2022-11-10T06:06:38.146Z,94.52
2022-11-10T06:09:23.534Z,93.89
2022-11-10T06:12:08.455Z,94.93
2022-11-10T06:14:53.333Z,93.85
2022-11-10T06:17:38.414Z,94.97
2022-11-10T06:20:24.501Z,95.36
2022-11-10T06:23:11.372Z,95.32
2022-11-10T06:25:56.599Z,95.37
2022-11-10T06:28:41.446Z,95.24
2022-11-10T06:31:26.699Z,95.74
2022-11-10T06:34:11.448Z,95.32
2022-11-10T06:36:56.423Z,95.57
2022-11-10T06:39:41.151Z,95.47
2022-11-10T06:42:26.302Z,95.74
2022-11-10T06:45:11.461Z,95.62
2022-11-10T06:48:00.910Z,96.49
2022-11-10T06:50:45.866Z,96.71
2022-11-10T06:53:30.908Z,96.76
2022-11-10T06:56:16.218Z,97.06
2022-11-10T06:59:01.174Z,96.67
2022-11-10T07:01:46.072Z,97.11
2022-11-10T07:04:31.053Z,96.90
2022-11-10T07:07:16.208Z,97.21
2022-11-10T07:10:06.574Z,97.43
2022-11-10T07:12:56.483Z,96.83
2022-11-10T07:15:41.809Z,97.13
2022-11-10T07:18:26.999Z,96.91
2022-11-10T07:21:12.007Z,96.59
2022-11-10T07:23:56.893Z,96.23
2022-11-10T07:26:41.796Z,96.31
2022-11-10T07:29:26.726Z,96.46
2022-11-10T07:32:11.646Z,96.25
2022-11-10T07:34:56.582Z,95.98
2022-11-10T07:37:41.701Z,96.18
2022-11-10T07:40:26.698Z,96.26
2022-11-10T07:43:11.498Z,96.44
2022-11-10T07:45:56.442Z,95.63
2022-11-10T07:48:41.379Z,95.47
2022-11-10T07:51:26.964Z,95.90
2022-11-10T07:54:12.378Z,95.31
2022-11-10T07:56:57.464Z,95.21
2022-11-10T07:59:42.365Z,95.29
2022-11-10T08:02:27.412Z,95.39
2022-11-10T08:05:12.535Z,94.43
2022-11-10T08:07:57.417Z,94.27
2022-11-10T08:10:43.186Z,94.03
2022-11-10T08:13:28.247Z,94.33
2022-11-10T08:16:13.218Z,94.12
2022-11-10T08:18:58.069Z,93.92
2022-11-10T08:21:42.842Z,94.29
2022-11-10T08:24:27.735Z,93.98
2022-11-10T08:27:12.478Z,93.87
2022-11-10T08:29:57.849Z,93.48
2022-11-10T08:32:42.684Z,93.13
2022-11-10T08:35:30.814Z,92.42
2022-11-10T08:38:19.284Z,92.03
2022-11-10T08:41:04.472Z,91.86
2022-11-10T08:43:49.384Z,91.38
2022-11-10T08:46:34.391Z,92.10
2022-11-10T08:49:19.263Z,91.12
2022-11-10T08:52:04.457Z,91.35
2022-11-10T08:54:49.543Z,91.24
2022-11-10T08:57:34.456Z,90.76
2022-11-10T09:00:19.583Z,90.42
2022-11-10T09:03:07.905Z,90.86
2022-11-10T09:10:06.768Z,90.87
2022-11-10T09:12:52.638Z,90.74
2022-11-10T09:15:38.299Z,90.36
2022-11-10T09:18:23.553Z,90.64
2022-11-10T09:21:11.801Z,90.13
2022-11-10T09:23:56.902Z,89.89
2022-11-10T09:26:45.176Z,89.73
2022-11-10T09:29:30.282Z,89.36
2022-11-10T09:32:15.089Z,89.50
2022-11-10T09:35:00.629Z,89.29
2022-11-10T09:37:45.530Z,89.30
2022-11-10T09:41:02.565Z,88.99
2022-11-10T09:44:15.751Z,89.39
2022-11-10T09:47:05.047Z,89.11
2022-11-10T09:49:56.788Z,88.52
2022-11-10T09:52:43.971Z,88.27
2022-11-10T09:55:41.013Z,88.08
2022-11-10T09:58:33.428Z,87.84
2022-11-10T10:01:33.230Z,87.52
2022-11-10T10:04:41.965Z,86.71
2022-11-10T10:07:50.064Z,86.95
2022-11-10T10:10:47.042Z,87.08
2022-11-10T10:13:52.297Z,86.59
2022-11-10T10:17:11.462Z,86.00
2022-11-10T10:20:19.488Z,85.49
2022-11-10T10:23:53.926Z,85.62
2022-11-10T10:26:38.098Z,85.41
2022-11-10T10:29:44.899Z,84.96
2022-11-10T10:32:29.882Z,84.45
2022-11-10T10:35:16.706Z,84.62
2022-11-10T10:38:02.502Z,84.84
2022-11-10T10:40:50.318Z,84.52
2022-11-10T10:43:35.506Z,84.38
2022-11-10T10:46:27.670Z,84.35
2022-11-10T10:49:32.170Z,84.81
2022-11-10T10:52:20.253Z,83.95
2022-11-10T10:55:08.190Z,83.73
2022-11-10T10:57:59.249Z,83.90
2022-11-10T11:00:45.676Z,83.98
2022-11-10T11:03:49.919Z,83.42
2022-11-10T11:06:35.812Z,83.43
2022-11-10T11:09:26.691Z,83.74
2022-11-10T11:12:14.497Z,83.88
2022-11-10T11:15:26.471Z,83.99
2022-11-10T11:18:16.717Z,83.96
2022-11-10T11:21:14.146Z,83.62
2022-11-10T11:24:24.357Z,82.88
2022-11-10T11:27:34.080Z,82.50
2022-11-10T11:30:28.413Z,82.57
2022-11-10T11:33:35.059Z,82.41
2022-11-10T11:36:51.440Z,81.77
2022-11-10T11:39:53.818Z,81.50
2022-11-10T11:43:03.874Z,81.07
2022-11-10T11:45:57.308Z,81.05
2022-11-10T11:48:52.426Z,81.09
2022-11-10T11:51:57.623Z,80.59
2022-11-10T11:55:12.931Z,80.32
2022-11-10T11:58:14.974Z,80.17
2022-11-10T12:01:15.866Z,79.68
2022-11-10T12:04:19.451Z,79.75
2022-11-10T12:07:23.331Z,78.70
2022-11-10T12:10:27.356Z,79.43
2022-11-10T12:13:34.823Z,79.44
2022-11-10T12:16:28.336Z,78.69
2022-11-10T12:19:35.054Z,78.12
2022-11-10T12:22:33.436Z,77.35
2022-11-10T12:25:33.417Z,77.48
2022-11-10T12:28:25.974Z,77.87
2022-11-10T12:31:18.064Z,77.36
2022-11-10T12:34:28.396Z,76.34
2022-11-10T12:37:28.231Z,76.69
2022-11-10T12:40:20.789Z,76.77
2022-11-10T12:43:22.769Z,76.77
2022-11-10T12:46:12.549Z,76.71
2022-11-10T12:49:19.473Z,76.73
2022-11-10T12:52:19.245Z,76.95
2022-11-10T12:55:04.660Z,77.21
2022-11-10T12:57:49.845Z,76.51
2022-11-10T13:00:54.771Z,76.89
2022-11-10T13:03:52.559Z,76.77
2022-11-10T13:06:45.563Z,76.30
2022-11-10T13:09:36.448Z,76.12
2022-11-10T13:12:23.372Z,76.35
2022-11-10T13:15:39.580Z,76.27
2022-11-10T13:18:44.557Z,76.27
2022-11-10T13:21:51.382Z,75.46
2022-11-10T13:24:38.787Z,75.45
2022-11-10T13:27:33.209Z,74.88
2022-11-10T13:30:45.464Z,75.23
2022-11-10T13:33:35.629Z,74.99
2022-11-10T13:36:53.418Z,74.77
2022-11-10T13:39:39.470Z,74.74
2022-11-10T13:42:24.599Z,74.55
2022-11-10T13:45:32.470Z,74.10
2022-11-10T13:48:17.427Z,74.52
2022-11-10T13:51:30.305Z,74.18
2022-11-10T13:54:33.204Z,73.99
2022-11-10T13:57:27.511Z,74.19
2022-11-10T14:00:18.645Z,74.21
2022-11-10T14:03:04.882Z,74.24
2022-11-10T14:06:06.421Z,74.23
2022-11-10T14:09:05.368Z,74.88
2022-11-10T14:11:55.303Z,74.96
2022-11-10T14:14:52.477Z,74.13
2022-11-10T14:17:50.381Z,74.10
2022-11-10T14:20:41.718Z,73.94
2022-11-10T14:23:33.504Z,74.58
2022-11-10T14:26:30.245Z,74.07
2022-11-10T14:29:28.411Z,73.80
2022-11-10T14:32:22.263Z,74.08
2022-11-10T14:35:19.393Z,73.70
2022-11-10T14:38:07.235Z,73.60
2022-11-10T14:40:56.540Z,73.93
2022-11-10T14:43:41.425Z,74.42
2022-11-10T14:46:26.346Z,73.94
2022-11-10T14:49:11.340Z,73.96
2022-11-10T14:51:59.075Z,74.23
2022-11-10T14:54:46.384Z,74.58
2022-11-10T14:57:31.309Z,74.44
2022-11-10T15:00:25.302Z,74.29
2022-11-10T15:03:30.899Z,74.83
2022-11-10T15:06:16.267Z,75.29
2022-11-10T15:09:16.971Z,74.85
2022-11-10T15:12:26.181Z,73.84
2022-11-10T15:15:19.665Z,74.28
2022-11-10T15:18:05.313Z,74.56
2022-11-10T15:21:05.591Z,75.17
2022-11-10T15:23:55.709Z,74.95
2022-11-10T15:26:41.458Z,75.20
2022-11-10T15:29:29.137Z,75.42
2022-11-10T15:32:16.336Z,75.13
2022-11-10T15:35:10.582Z,76.09
2022-11-10T15:38:05.500Z,76.22
2022-11-10T15:40:52.650Z,76.95
2022-11-10T15:43:37.582Z,77.42
2022-11-10T15:46:25.796Z,77.40
2022-11-10T15:49:24.317Z,78.40
2022-11-10T15:52:17.299Z,78.18
2022-11-10T15:55:02.464Z,78.45
2022-11-10T15:57:47.418Z,78.30
2022-11-10T16:00:32.444Z,78.48
2022-11-10T16:03:20.008Z,78.85
2022-11-10T16:06:05.254Z,78.74
2022-11-10T16:08:50.314Z,78.44
2022-11-10T16:11:38.243Z,79.31
2022-11-10T16:14:23.389Z,78.60
2022-11-10T16:17:11.011Z,79.39
2022-11-10T16:19:56.267Z,79.30
2022-11-10T16:22:41.197Z,80.07
2022-11-10T16:25:27.869Z,80.98
2022-11-10T16:28:19.523Z,80.61
2022-11-10T16:31:05.757Z,80.84
2022-11-10T16:33:50.760Z,80.99
2022-11-10T16:36:35.727Z,81.38
2022-11-10T16:39:20.876Z,81.98
2022-11-10T16:42:06.244Z,82.20
2022-11-10T16:44:51.110Z,82.80
2022-11-10T16:47:36.048Z,83.35
2022-11-10T16:50:31.812Z,83.15
2022-11-10T16:53:20.221Z,83.50
2022-11-10T16:56:05.616Z,83.35
2022-11-10T16:58:50.694Z,83.43
2022-11-10T17:01:37.532Z,83.39
2022-11-10T17:04:22.730Z,82.02
2022-11-10T17:07:14.645Z,82.49
2022-11-10T17:10:01.387Z,81.99
2022-11-10T17:12:46.786Z,82.43
2022-11-10T17:15:32.477Z,81.99
2022-11-10T17:18:20.648Z,82.09
2022-11-10T17:21:07.090Z,81.16
2022-11-10T17:23:52.462Z,81.76
2022-11-10T17:26:37.582Z,81.66
2022-11-10T17:29:23.715Z,81.34
2022-11-10T17:32:08.961Z,80.85
2022-11-10T17:34:53.956Z,81.13
2022-11-10T17:37:40.189Z,81.94
2022-11-10T17:40:27.726Z,81.35
2022-11-10T17:43:13.822Z,80.93
2022-11-10T17:45:58.844Z,81.36
2022-11-10T17:48:44.307Z,81.02
2022-11-10T17:51:33.104Z,79.84
2022-11-10T17:54:18.115Z,80.00
2022-11-10T17:57:04.437Z,79.73
2022-11-10T17:59:49.195Z,79.73
2022-11-10T18:02:34.209Z,79.32
2022-11-10T18:05:19.065Z,79.55
2022-11-10T18:08:04.003Z,79.55
2022-11-10T18:10:51.851Z,78.63
2022-11-10T18:13:41.088Z,78.96
2022-11-10T18:16:27.025Z,79.17
2022-11-10T18:19:12.253Z,78.72
2022-11-10T18:21:57.242Z,78.43
2022-11-10T18:24:42.674Z,78.54
2022-11-10T18:27:28.265Z,78.67
2022-11-10T18:30:16.934Z,78.46
2022-11-10T18:33:03.061Z,78.68
2022-11-10T18:35:48.129Z,78.10
2022-11-10T18:38:33.030Z,77.98
2022-11-10T18:41:36.650Z,77.77
2022-11-10T18:44:21.752Z,77.90
2022-11-10T18:47:07.849Z,77.55
2022-11-10T18:49:52.743Z,78.11
2022-11-10T18:52:37.578Z,78.27
2022-11-10T18:55:22.637Z,77.98
2022-11-10T18:58:07.526Z,77.67
2022-11-10T19:00:52.388Z,77.66
2022-11-10T19:03:37.622Z,77.38
2022-11-10T19:06:22.834Z,77.83
2022-11-10T19:09:08.389Z,77.67
2022-11-10T19:11:53.608Z,77.42
2022-11-10T19:14:38.526Z,77.94
2022-11-10T19:17:23.356Z,77.82
2022-11-10T19:20:10.150Z,77.88
2022-11-10T19:22:55.075Z,77.75
2022-11-10T19:25:39.958Z,77.55
2022-11-10T19:28:24.803Z,77.48
2022-11-10T19:31:12.098Z,77.88
2022-11-10T19:33:57.688Z,77.81
2022-11-10T19:36:42.609Z,77.60
2022-11-10T19:39:27.616Z,77.44
2022-11-10T19:42:12.545Z,77.19
2022-11-10T19:44:58.026Z,77.33
2022-11-10T19:47:43.561Z,77.42
2022-11-10T19:50:28.727Z,78.05
2022-11-10T19:53:15.774Z,77.62
2022-11-10T19:56:06.988Z,77.32
2022-11-10T19:58:52.057Z,77.52
2022-11-10T20:01:37.550Z,77.63
2022-11-10T20:04:23.011Z,77.84
2022-11-10T20:07:40.503Z,77.78
2022-11-10T20:10:25.443Z,78.36
2022-11-10T20:13:11.520Z,78.46
2022-11-10T20:15:56.460Z,78.93
2022-11-10T20:18:41.692Z,78.21
2022-11-10T20:21:27.493Z,79.00
2022-11-10T20:24:12.853Z,79.41
2022-11-10T20:26:58.007Z,79.60
2022-11-10T20:29:43.193Z,79.68
2022-11-10T20:32:28.542Z,79.76
2022-11-10T20:35:13.437Z,80.14
2022-11-10T20:37:58.280Z,80.05
2022-11-10T20:40:44.845Z,80.31
2022-11-10T20:43:33.122Z,80.48
2022-11-10T20:46:52.726Z,81.20
2022-11-10T20:49:25.492Z,81.50
2022-11-10T20:52:10.427Z,81.81
2022-11-10T20:54:55.398Z,82.14
2022-11-10T20:57:40.239Z,82.09
2022-11-10T21:00:25.305Z,82.37
2022-11-10T21:03:10.067Z,83.16
2022-11-10T21:05:55.712Z,82.89
2022-11-10T21:08:40.812Z,83.58
2022-11-10T21:11:44.552Z,83.89
2022-11-10T21:14:29.634Z,83.50
2022-11-10T21:17:14.662Z,84.39
2022-11-10T21:19:59.550Z,83.97
2022-11-10T21:22:44.513Z,84.54
2022-11-10T21:25:29.398Z,84.34
2022-11-10T21:28:14.313Z,84.10
2022-11-10T21:31:03.953Z,85.20
2022-11-10T21:33:48.978Z,84.87
2022-11-10T21:36:34.293Z,85.02
2022-11-10T21:39:19.139Z,86.17
2022-11-10T21:42:04.475Z,85.49
2022-11-10T21:44:49.301Z,85.66
2022-11-10T21:47:34.275Z,86.08
2022-11-10T21:50:19.292Z,85.93
2022-11-10T21:53:08.222Z,87.63
2022-11-10T21:56:01.229Z,87.35
2022-11-10T21:58:46.453Z,88.02
2022-11-10T22:01:31.447Z,87.40
2022-11-10T22:04:16.713Z,88.75
2022-11-10T22:07:20.429Z,88.64
2022-11-10T22:10:24.323Z,89.90
2022-11-10T22:13:38.339Z,88.63
2022-11-10T22:16:46.717Z,88.62
2022-11-10T22:19:33.251Z,89.93
2022-11-10T22:22:18.213Z,91.04
2022-11-10T22:25:03.406Z,89.76
2022-11-10T22:27:48.658Z,90.70
2022-11-10T22:30:33.742Z,91.01
2022-11-10T22:33:27.584Z,90.65
2022-11-10T22:36:15.519Z,90.27
2022-11-10T22:39:03.810Z,90.09
2022-11-10T22:42:07.683Z,89.92
2022-11-10T22:44:52.711Z,89.79
2022-11-10T22:47:57.576Z,89.92
2022-11-10T22:50:42.745Z,89.87
2022-11-10T22:53:27.677Z,89.87
2022-11-10T22:56:12.803Z,90.81
2022-11-10T22:59:00.102Z,91.22
2022-11-10T23:01:45.920Z,90.34
2022-11-10T23:04:31.065Z,90.54
2022-11-10T23:07:16.019Z,90.64
2022-11-10T23:10:00.798Z,90.78
2022-11-10T23:12:45.647Z,90.81
2022-11-10T23:15:34.454Z,90.53
2022-11-10T23:18:19.893Z,90.27
2022-11-10T23:21:08.111Z,91.18
2022-11-10T23:23:53.737Z,92.43
2022-11-10T23:26:38.566Z,92.47
2022-11-10T23:29:23.427Z,91.99
2022-11-10T23:32:08.269Z,92.26
2022-11-10T23:34:53.183Z,92.69
2022-11-10T23:37:38.076Z,91.53
2022-11-10T23:40:23.008Z,92.52
2022-11-10T23:43:07.935Z,93.31
2022-11-10T23:46:06.335Z,93.26
2022-11-10T23:48:52.156Z,93.04
2022-11-10T23:51:37.030Z,94.90
2022-11-10T23:54:22.041Z,94.83
2022-11-10T23:57:06.887Z,93.78
2022-11-10T23:59:51.728Z,94.32
